sensor_id;sensor_type;location;lat;lon;timestamp;P1;durP1;ratioP1;P2;durP2;ratioP2
12114;SDS011;6121;49.810;6.418;2022-12-07T00:01:39;614.85;;;565.60;;
12114;SDS011;6121;49.810;6.418;2022-12-07T00:04:07;624.35;;;574.78;;
12114;SDS011;6121;49.810;6.418;2022-12-07T00:06:36;631.10;;;581.58;;
12114;SDS011;6121;49.810;6.418;2022-12-07T00:09:04;625.63;;;575.97;;
12114;SDS011;6121;49.810;6.418;2022-12-07T00:11:31;619.85;;;570.80;;
12114;SDS011;6121;49.810;6.418;2022-12-07T00:13:58;623.08;;;573.72;;
12114;SDS011;6121;49.810;6.418;2022-12-07T00:16:27;606.78;;;558.20;;
12114;SDS011;6121;49.810;6.418;2022-12-07T00:18:54;609.83;;;561.05;;
12114;SDS011;6121;49.810;6.418;2022-12-07T00:21:21;603.30;;;554.67;;
12114;SDS011;6121;49.810;6.418;2022-12-07T00:23:57;613.23;;;564.27;;
12114;SDS011;6121;49.810;6.418;2022-12-07T00:26:24;609.63;;;560.63;;
12114;SDS011;6121;49.810;6.418;2022-12-07T00:28:55;621.95;;;572.75;;
12114;SDS011;6121;49.810;6.418;2022-12-07T00:31:31;629.47;;;578.22;;
12114;SDS011;6121;49.810;6.418;2022-12-07T00:34:00;615.95;;;566.63;;
12114;SDS011;6121;49.810;6.418;2022-12-07T00:36:25;622.28;;;572.92;;
12114;SDS011;6121;49.810;6.418;2022-12-07T00:38:51;611.47;;;562.30;;
12114;SDS011;6121;49.810;6.418;2022-12-07T00:41:18;606.38;;;557.47;;
12114;SDS011;6121;49.810;6.418;2022-12-07T00:43:45;602.28;;;553.75;;
12114;SDS011;6121;49.810;6.418;2022-12-07T00:46:12;612.72;;;563.78;;
12114;SDS011;6121;49.810;6.418;2022-12-07T00:48:39;626.15;;;576.60;;
12114;SDS011;6121;49.810;6.418;2022-12-07T00:51:05;611.90;;;562.83;;
12114;SDS011;6121;49.810;6.418;2022-12-07T00:53:31;617.65;;;568.17;;
12114;SDS011;6121;49.810;6.418;2022-12-07T00:56:04;614.05;;;564.88;;
12114;SDS011;6121;49.810;6.418;2022-12-07T00:58:30;615.77;;;566.77;;
12114;SDS011;6121;49.810;6.418;2022-12-07T01:00:56;610.95;;;561.63;;
12114;SDS011;6121;49.810;6.418;2022-12-07T01:03:26;620.65;;;571.20;;
12114;SDS011;6121;49.810;6.418;2022-12-07T01:05:52;620.20;;;569.43;;
12114;SDS011;6121;49.810;6.418;2022-12-07T01:08:19;613.63;;;564.53;;
12114;SDS011;6121;49.810;6.418;2022-12-07T01:10:46;614.00;;;564.80;;
12114;SDS011;6121;49.810;6.418;2022-12-07T01:13:11;618.10;;;568.85;;
12114;SDS011;6121;49.810;6.418;2022-12-07T01:15:43;628.75;;;579.05;;
12114;SDS011;6121;49.810;6.418;2022-12-07T01:18:10;619.00;;;569.72;;
12114;SDS011;6121;49.810;6.418;2022-12-07T01:20:36;628.28;;;579.08;;
12114;SDS011;6121;49.810;6.418;2022-12-07T01:23:02;609.40;;;560.47;;
12114;SDS011;6121;49.810;6.418;2022-12-07T01:25:28;627.83;;;578.38;;
12114;SDS011;6121;49.810;6.418;2022-12-07T01:27:53;621.65;;;572.42;;
12114;SDS011;6121;49.810;6.418;2022-12-07T01:30:19;619.67;;;570.33;;
12114;SDS011;6121;49.810;6.418;2022-12-07T01:32:45;619.87;;;570.70;;
12114;SDS011;6121;49.810;6.418;2022-12-07T01:35:10;606.58;;;557.78;;
12114;SDS011;6121;49.810;6.418;2022-12-07T01:37:36;616.33;;;567.25;;
12114;SDS011;6121;49.810;6.418;2022-12-07T01:40:04;613.03;;;563.93;;
12114;SDS011;6121;49.810;6.418;2022-12-07T01:42:31;614.33;;;565.50;;
12114;SDS011;6121;49.810;6.418;2022-12-07T01:47:54;587.70;;;539.25;;
12114;SDS011;6121;49.810;6.418;2022-12-07T01:50:21;573.75;;;525.63;;
12114;SDS011;6121;49.810;6.418;2022-12-07T01:52:51;576.73;;;528.67;;
12114;SDS011;6121;49.810;6.418;2022-12-07T01:55:19;557.47;;;509.90;;
12114;SDS011;6121;49.810;6.418;2022-12-07T01:57:46;565.60;;;517.55;;
12114;SDS011;6121;49.810;6.418;2022-12-07T02:00:15;576.92;;;528.25;;
12114;SDS011;6121;49.810;6.418;2022-12-07T02:05:22;581.28;;;532.92;;
12114;SDS011;6121;49.810;6.418;2022-12-07T02:07:49;586.88;;;538.30;;
12114;SDS011;6121;49.810;6.418;2022-12-07T02:10:18;590.53;;;541.83;;
12114;SDS011;6121;49.810;6.418;2022-12-07T02:12:50;599.92;;;551.25;;
12114;SDS011;6121;49.810;6.418;2022-12-07T02:15:20;597.83;;;548.85;;
12114;SDS011;6121;49.810;6.418;2022-12-07T02:17:54;591.00;;;542.58;;
12114;SDS011;6121;49.810;6.418;2022-12-07T02:20:29;577.72;;;529.60;;
12114;SDS011;6121;49.810;6.418;2022-12-07T02:28:37;579.08;;;530.90;;
12114;SDS011;6121;49.810;6.418;2022-12-07T02:31:12;607.67;;;558.28;;
12114;SDS011;6121;49.810;6.418;2022-12-07T02:33:45;601.63;;;552.77;;
12114;SDS011;6121;49.810;6.418;2022-12-07T02:36:22;611.38;;;562.42;;
12114;SDS011;6121;49.810;6.418;2022-12-07T02:39:00;576.47;;;528.30;;
12114;SDS011;6121;49.810;6.418;2022-12-07T02:44:10;585.90;;;537.53;;
12114;SDS011;6121;49.810;6.418;2022-12-07T02:46:42;577.97;;;529.67;;
12114;SDS011;6121;49.810;6.418;2022-12-07T02:49:12;586.47;;;537.83;;
12114;SDS011;6121;49.810;6.418;2022-12-07T02:51:38;590.90;;;542.42;;
12114;SDS011;6121;49.810;6.418;2022-12-07T02:54:11;580.47;;;532.42;;
12114;SDS011;6121;49.810;6.418;2022-12-07T02:56:50;610.47;;;561.43;;
12114;SDS011;6121;49.810;6.418;2022-12-07T03:10:19;591.22;;;542.85;;
12114;SDS011;6121;49.810;6.418;2022-12-07T03:16:17;608.93;;;559.93;;
12114;SDS011;6121;49.810;6.418;2022-12-07T03:18:45;618.50;;;569.45;;
12114;SDS011;6121;49.810;6.418;2022-12-07T03:21:17;620.33;;;570.80;;
12114;SDS011;6121;49.810;6.418;2022-12-07T03:23:51;611.58;;;562.78;;
12114;SDS011;6121;49.810;6.418;2022-12-07T03:26:21;618.65;;;569.63;;
12114;SDS011;6121;49.810;6.418;2022-12-07T03:28:54;613.00;;;564.07;;
12114;SDS011;6121;49.810;6.418;2022-12-07T03:31:26;608.70;;;559.85;;
12114;SDS011;6121;49.810;6.418;2022-12-07T03:34:02;610.70;;;561.75;;
12114;SDS011;6121;49.810;6.418;2022-12-07T03:36:40;599.33;;;550.72;;
12114;SDS011;6121;49.810;6.418;2022-12-07T03:39:26;618.92;;;569.85;;
12114;SDS011;6121;49.810;6.418;2022-12-07T03:42:02;624.88;;;575.47;;
12114;SDS011;6121;49.810;6.418;2022-12-07T03:44:31;627.05;;;577.63;;
12114;SDS011;6121;49.810;6.418;2022-12-07T03:49:46;611.30;;;562.15;;
12114;SDS011;6121;49.810;6.418;2022-12-07T03:54:57;613.38;;;564.38;;
12114;SDS011;6121;49.810;6.418;2022-12-07T03:57:28;613.60;;;564.75;;
12114;SDS011;6121;49.810;6.418;2022-12-07T03:59:55;699.08;;;647.45;;
12114;SDS011;6121;49.810;6.418;2022-12-07T04:02:22;701.85;;;650.17;;
12114;SDS011;6121;49.810;6.418;2022-12-07T04:04:51;699.70;;;648.15;;
12114;SDS011;6121;49.810;6.418;2022-12-07T04:07:17;705.67;;;654.17;;
12114;SDS011;6121;49.810;6.418;2022-12-07T04:09:43;704.40;;;652.35;;
12114;SDS011;6121;49.810;6.418;2022-12-07T04:12:08;692.33;;;641.30;;
12114;SDS011;6121;49.810;6.418;2022-12-07T04:14:34;700.87;;;649.37;;
12114;SDS011;6121;49.810;6.418;2022-12-07T04:17:00;705.72;;;654.00;;
12114;SDS011;6121;49.810;6.418;2022-12-07T04:19:26;715.72;;;663.72;;
12114;SDS011;6121;49.810;6.418;2022-12-07T04:21:54;710.22;;;658.22;;
12114;SDS011;6121;49.810;6.418;2022-12-07T04:24:20;706.95;;;655.10;;
12114;SDS011;6121;49.810;6.418;2022-12-07T04:26:46;711.25;;;659.50;;
12114;SDS011;6121;49.810;6.418;2022-12-07T04:29:14;698.03;;;646.90;;
12114;SDS011;6121;49.810;6.418;2022-12-07T04:31:40;710.53;;;658.58;;
12114;SDS011;6121;49.810;6.418;2022-12-07T04:34:06;697.85;;;646.38;;
12114;SDS011;6121;49.810;6.418;2022-12-07T04:36:33;716.40;;;664.13;;
12114;SDS011;6121;49.810;6.418;2022-12-07T04:38:59;704.90;;;653.05;;
12114;SDS011;6121;49.810;6.418;2022-12-07T04:41:25;709.03;;;657.58;;
12114;SDS011;6121;49.810;6.418;2022-12-07T04:43:55;707.33;;;655.72;;
12114;SDS011;6121;49.810;6.418;2022-12-07T04:46:23;707.63;;;655.87;;
12114;SDS011;6121;49.810;6.418;2022-12-07T04:48:50;710.38;;;658.67;;
12114;SDS011;6121;49.810;6.418;2022-12-07T04:51:19;706.95;;;654.85;;
12114;SDS011;6121;49.810;6.418;2022-12-07T04:53:46;709.70;;;658.03;;
12114;SDS011;6121;49.810;6.418;2022-12-07T04:56:13;697.30;;;645.92;;
12114;SDS011;6121;49.810;6.418;2022-12-07T04:58:40;722.63;;;669.92;;
12114;SDS011;6121;49.810;6.418;2022-12-07T05:01:06;708.17;;;655.55;;
12114;SDS011;6121;49.810;6.418;2022-12-07T05:03:32;683.83;;;632.65;;
12114;SDS011;6121;49.810;6.418;2022-12-07T05:05:57;697.42;;;645.55;;
12114;SDS011;6121;49.810;6.418;2022-12-07T05:08:23;701.70;;;649.77;;
12114;SDS011;6121;49.810;6.418;2022-12-07T05:10:49;684.80;;;633.53;;
12114;SDS011;6121;49.810;6.418;2022-12-07T05:13:14;688.38;;;636.72;;
12114;SDS011;6121;49.810;6.418;2022-12-07T05:15:40;701.88;;;649.70;;
12114;SDS011;6121;49.810;6.418;2022-12-07T05:18:08;688.67;;;637.10;;
12114;SDS011;6121;49.810;6.418;2022-12-07T05:20:34;694.00;;;642.65;;
12114;SDS011;6121;49.810;6.418;2022-12-07T05:23:00;687.00;;;635.90;;
12114;SDS011;6121;49.810;6.418;2022-12-07T05:25:25;687.70;;;636.20;;
12114;SDS011;6121;49.810;6.418;2022-12-07T05:27:51;692.17;;;641.07;;
12114;SDS011;6121;49.810;6.418;2022-12-07T05:30:16;692.25;;;640.28;;
12114;SDS011;6121;49.810;6.418;2022-12-07T05:32:42;691.70;;;640.03;;
12114;SDS011;6121;49.810;6.418;2022-12-07T05:35:08;692.50;;;641.03;;
12114;SDS011;6121;49.810;6.418;2022-12-07T05:37:33;694.60;;;643.10;;
12114;SDS011;6121;49.810;6.418;2022-12-07T05:39:59;707.72;;;655.70;;
12114;SDS011;6121;49.810;6.418;2022-12-07T05:42:24;688.50;;;637.37;;
12114;SDS011;6121;49.810;6.418;2022-12-07T05:44:50;698.50;;;646.70;;
12114;SDS011;6121;49.810;6.418;2022-12-07T05:47:16;686.25;;;634.47;;
12114;SDS011;6121;49.810;6.418;2022-12-07T05:49:42;701.65;;;650.05;;
12114;SDS011;6121;49.810;6.418;2022-12-07T05:52:07;686.90;;;635.88;;
12114;SDS011;6121;49.810;6.418;2022-12-07T05:54:33;700.97;;;649.42;;
12114;SDS011;6121;49.810;6.418;2022-12-07T05:56:59;681.23;;;629.93;;
12114;SDS011;6121;49.810;6.418;2022-12-07T05:59:24;702.05;;;650.03;;
12114;SDS011;6121;49.810;6.418;2022-12-07T06:02:05;694.17;;;642.88;;
12114;SDS011;6121;49.810;6.418;2022-12-07T06:04:34;709.75;;;656.97;;
12114;SDS011;6121;49.810;6.418;2022-12-07T06:07:01;712.60;;;660.47;;
12114;SDS011;6121;49.810;6.418;2022-12-07T06:09:27;717.35;;;663.92;;
12114;SDS011;6121;49.810;6.418;2022-12-07T06:11:53;710.55;;;658.58;;
12114;SDS011;6121;49.810;6.418;2022-12-07T06:14:38;700.33;;;648.70;;
12114;SDS011;6121;49.810;6.418;2022-12-07T06:17:04;714.05;;;661.08;;
12114;SDS011;6121;49.810;6.418;2022-12-07T06:19:30;697.87;;;646.07;;
12114;SDS011;6121;49.810;6.418;2022-12-07T06:21:56;713.78;;;661.83;;
12114;SDS011;6121;49.810;6.418;2022-12-07T06:24:22;706.85;;;654.40;;
12114;SDS011;6121;49.810;6.418;2022-12-07T06:26:48;697.20;;;645.03;;
12114;SDS011;6121;49.810;6.418;2022-12-07T06:29:14;697.97;;;646.00;;
12114;SDS011;6121;49.810;6.418;2022-12-07T06:31:41;692.33;;;640.83;;
12114;SDS011;6121;49.810;6.418;2022-12-07T06:34:09;693.73;;;642.63;;
12114;SDS011;6121;49.810;6.418;2022-12-07T06:36:36;701.78;;;649.58;;
12114;SDS011;6121;49.810;6.418;2022-12-07T06:39:03;701.80;;;649.75;;
12114;SDS011;6121;49.810;6.418;2022-12-07T06:41:29;706.63;;;654.80;;
12114;SDS011;6121;49.810;6.418;2022-12-07T06:43:55;691.90;;;639.75;;
12114;SDS011;6121;49.810;6.418;2022-12-07T06:46:21;694.93;;;642.77;;
12114;SDS011;6121;49.810;6.418;2022-12-07T06:48:46;715.03;;;662.70;;
12114;SDS011;6121;49.810;6.418;2022-12-07T06:51:12;697.92;;;645.85;;
12114;SDS011;6121;49.810;6.418;2022-12-07T06:53:38;707.10;;;655.17;;
12114;SDS011;6121;49.810;6.418;2022-12-07T06:56:03;707.63;;;655.70;;
12114;SDS011;6121;49.810;6.418;2022-12-07T06:58:30;703.85;;;652.22;;
12114;SDS011;6121;49.810;6.418;2022-12-07T07:00:56;694.25;;;642.13;;
12114;SDS011;6121;49.810;6.418;2022-12-07T07:03:22;702.77;;;650.70;;
12114;SDS011;6121;49.810;6.418;2022-12-07T07:05:47;700.30;;;648.17;;
12114;SDS011;6121;49.810;6.418;2022-12-07T07:08:13;694.50;;;643.13;;
12114;SDS011;6121;49.810;6.418;2022-12-07T07:10:40;705.70;;;653.75;;
12114;SDS011;6121;49.810;6.418;2022-12-07T07:13:06;699.08;;;647.25;;
12114;SDS011;6121;49.810;6.418;2022-12-07T07:15:32;704.55;;;652.50;;
12114;SDS011;6121;49.810;6.418;2022-12-07T07:17:58;694.00;;;642.45;;
12114;SDS011;6121;49.810;6.418;2022-12-07T07:20:24;693.25;;;641.80;;
12114;SDS011;6121;49.810;6.418;2022-12-07T07:22:50;693.40;;;641.88;;
12114;SDS011;6121;49.810;6.418;2022-12-07T07:25:19;698.90;;;646.80;;
12114;SDS011;6121;49.810;6.418;2022-12-07T07:27:44;711.63;;;659.28;;
12114;SDS011;6121;49.810;6.418;2022-12-07T07:30:10;720.83;;;668.00;;
12114;SDS011;6121;49.810;6.418;2022-12-07T07:32:36;710.42;;;658.05;;
12114;SDS011;6121;49.810;6.418;2022-12-07T07:35:02;709.92;;;657.03;;
12114;SDS011;6121;49.810;6.418;2022-12-07T07:37:28;701.67;;;649.70;;
12114;SDS011;6121;49.810;6.418;2022-12-07T07:39:53;692.77;;;640.20;;
12114;SDS011;6121;49.810;6.418;2022-12-07T07:42:19;704.27;;;651.17;;
12114;SDS011;6121;49.810;6.418;2022-12-07T07:44:45;693.38;;;640.55;;
12114;SDS011;6121;49.810;6.418;2022-12-07T07:47:10;699.35;;;647.03;;
12114;SDS011;6121;49.810;6.418;2022-12-07T07:49:36;692.60;;;640.70;;
12114;SDS011;6121;49.810;6.418;2022-12-07T07:52:02;702.88;;;650.97;;
12114;SDS011;6121;49.810;6.418;2022-12-07T07:54:28;702.78;;;649.83;;
12114;SDS011;6121;49.810;6.418;2022-12-07T07:56:54;717.50;;;664.78;;
12114;SDS011;6121;49.810;6.418;2022-12-07T07:59:19;704.93;;;652.80;;
12114;SDS011;6121;49.810;6.418;2022-12-07T08:01:45;701.83;;;649.07;;
12114;SDS011;6121;49.810;6.418;2022-12-07T08:04:10;706.83;;;654.58;;
12114;SDS011;6121;49.810;6.418;2022-12-07T08:06:36;713.83;;;661.55;;
12114;SDS011;6121;49.810;6.418;2022-12-07T08:09:02;718.47;;;665.63;;
12114;SDS011;6121;49.810;6.418;2022-12-07T08:11:30;711.63;;;658.90;;
12114;SDS011;6121;49.810;6.418;2022-12-07T08:13:55;698.50;;;646.22;;
12114;SDS011;6121;49.810;6.418;2022-12-07T08:16:21;696.83;;;644.87;;
12114;SDS011;6121;49.810;6.418;2022-12-07T08:18:46;706.43;;;653.43;;
12114;SDS011;6121;49.810;6.418;2022-12-07T08:21:12;702.20;;;649.93;;
12114;SDS011;6121;49.810;6.418;2022-12-07T08:23:39;707.67;;;654.65;;
12114;SDS011;6121;49.810;6.418;2022-12-07T08:26:06;700.33;;;647.80;;
12114;SDS011;6121;49.810;6.418;2022-12-07T08:28:34;712.87;;;658.53;;
12114;SDS011;6121;49.810;6.418;2022-12-07T08:31:00;698.47;;;645.92;;
12114;SDS011;6121;49.810;6.418;2022-12-07T08:33:27;697.47;;;645.40;;
12114;SDS011;6121;49.810;6.418;2022-12-07T08:35:53;720.67;;;667.15;;
12114;SDS011;6121;49.810;6.418;2022-12-07T08:38:19;714.47;;;660.93;;
12114;SDS011;6121;49.810;6.418;2022-12-07T08:40:45;730.20;;;677.00;;
12114;SDS011;6121;49.810;6.418;2022-12-07T08:43:19;741.75;;;688.58;;
12114;SDS011;6121;49.810;6.418;2022-12-07T08:45:44;741.33;;;687.17;;
12114;SDS011;6121;49.810;6.418;2022-12-07T08:48:11;705.05;;;652.22;;
12114;SDS011;6121;49.810;6.418;2022-12-07T08:50:39;748.05;;;694.33;;
12114;SDS011;6121;49.810;6.418;2022-12-07T08:53:05;730.47;;;677.60;;
12114;SDS011;6121;49.810;6.418;2022-12-07T08:55:31;745.20;;;689.72;;
12114;SDS011;6121;49.810;6.418;2022-12-07T08:57:58;744.30;;;688.92;;
12114;SDS011;6121;49.810;6.418;2022-12-07T09:00:25;732.30;;;677.05;;
12114;SDS011;6121;49.810;6.418;2022-12-07T09:02:51;757.17;;;702.10;;
12114;SDS011;6121;49.810;6.418;2022-12-07T09:05:18;769.92;;;711.88;;
12114;SDS011;6121;49.810;6.418;2022-12-07T09:07:44;748.43;;;693.03;;
12114;SDS011;6121;49.810;6.418;2022-12-07T09:10:14;737.40;;;683.03;;
12114;SDS011;6121;49.810;6.418;2022-12-07T09:12:40;759.80;;;704.10;;
12114;SDS011;6121;49.810;6.418;2022-12-07T09:15:06;765.13;;;706.77;;
12114;SDS011;6121;49.810;6.418;2022-12-07T09:17:33;743.35;;;688.72;;
12114;SDS011;6121;49.810;6.418;2022-12-07T09:19:58;731.40;;;676.57;;
12114;SDS011;6121;49.810;6.418;2022-12-07T09:22:28;822.47;;;765.08;;
12114;SDS011;6121;49.810;6.418;2022-12-07T09:24:55;848.00;;;787.95;;
12114;SDS011;6121;49.810;6.418;2022-12-07T09:27:21;840.38;;;782.40;;
12114;SDS011;6121;49.810;6.418;2022-12-07T09:29:47;805.80;;;749.20;;
12114;SDS011;6121;49.810;6.418;2022-12-07T09:32:12;815.50;;;758.63;;
12114;SDS011;6121;49.810;6.418;2022-12-07T09:34:38;858.03;;;798.55;;
12114;SDS011;6121;49.810;6.418;2022-12-07T09:37:04;847.67;;;789.83;;
12114;SDS011;6121;49.810;6.418;2022-12-07T09:39:29;844.20;;;786.03;;
12114;SDS011;6121;49.810;6.418;2022-12-07T09:41:56;823.27;;;766.57;;
12114;SDS011;6121;49.810;6.418;2022-12-07T09:44:24;826.40;;;768.58;;
12114;SDS011;6121;49.810;6.418;2022-12-07T09:46:51;802.35;;;746.13;;
12114;SDS011;6121;49.810;6.418;2022-12-07T09:49:19;829.28;;;771.78;;
12114;SDS011;6121;49.810;6.418;2022-12-07T09:51:46;815.40;;;757.88;;
12114;SDS011;6121;49.810;6.418;2022-12-07T09:54:13;595.28;;;544.33;;
12114;SDS011;6121;49.810;6.418;2022-12-07T09:56:41;540.08;;;490.25;;
12114;SDS011;6121;49.810;6.418;2022-12-07T09:59:16;486.48;;;436.88;;
12114;SDS011;6121;49.810;6.418;2022-12-07T10:01:43;467.10;;;419.63;;
12114;SDS011;6121;49.810;6.418;2022-12-07T10:04:14;414.65;;;369.00;;
12114;SDS011;6121;49.810;6.418;2022-12-07T10:06:41;431.52;;;384.35;;
12114;SDS011;6121;49.810;6.418;2022-12-07T10:09:11;474.65;;;426.63;;
12114;SDS011;6121;49.810;6.418;2022-12-07T10:14:22;606.13;;;554.95;;
12114;SDS011;6121;49.810;6.418;2022-12-07T10:16:48;589.23;;;538.83;;
12114;SDS011;6121;49.810;6.418;2022-12-07T10:19:18;588.60;;;537.77;;
12114;SDS011;6121;49.810;6.418;2022-12-07T10:24:26;882.90;;;824.22;;
12114;SDS011;6121;49.810;6.418;2022-12-07T10:26:51;912.67;;;853.20;;
12114;SDS011;6121;49.810;6.418;2022-12-07T10:32:01;921.03;;;860.78;;
12114;SDS011;6121;49.810;6.418;2022-12-07T10:34:28;950.03;;;888.75;;
12114;SDS011;6121;49.810;6.418;2022-12-07T10:50:44;563.45;;;512.63;;
12114;SDS011;6121;49.810;6.418;2022-12-07T10:53:37;631.70;;;580.38;;
12114;SDS011;6121;49.810;6.418;2022-12-07T10:56:27;876.50;;;817.63;;
12114;SDS011;6121;49.810;6.418;2022-12-07T11:01:50;928.90;;;868.17;;
12114;SDS011;6121;49.810;6.418;2022-12-07T11:04:22;949.55;;;887.75;;
12114;SDS011;6121;49.810;6.418;2022-12-07T11:07:10;961.90;;;900.13;;
12114;SDS011;6121;49.810;6.418;2022-12-07T11:10:13;945.43;;;884.23;;
12114;SDS011;6121;49.810;6.418;2022-12-07T11:18:15;913.47;;;853.53;;
12114;SDS011;6121;49.810;6.418;2022-12-07T11:37:29;900.38;;;840.85;;
12114;SDS011;6121;49.810;6.418;2022-12-07T11:40:05;910.22;;;850.38;;
12114;SDS011;6121;49.810;6.418;2022-12-07T11:42:39;897.78;;;838.63;;
12114;SDS011;6121;49.810;6.418;2022-12-07T11:47:54;914.08;;;853.72;;
12114;SDS011;6121;49.810;6.418;2022-12-07T11:50:28;940.20;;;879.30;;
12114;SDS011;6121;49.810;6.418;2022-12-07T11:53:20;931.60;;;871.00;;
12114;SDS011;6121;49.810;6.418;2022-12-07T11:55:56;944.67;;;883.00;;
12114;SDS011;6121;49.810;6.418;2022-12-07T12:01:14;938.22;;;876.55;;
12114;SDS011;6121;49.810;6.418;2022-12-07T12:03:52;939.97;;;878.58;;
12114;SDS011;6121;49.810;6.418;2022-12-07T12:06:21;930.63;;;870.15;;
12114;SDS011;6121;49.810;6.418;2022-12-07T12:08:55;953.57;;;891.40;;
12114;SDS011;6121;49.810;6.418;2022-12-07T12:12:01;952.97;;;891.67;;
12114;SDS011;6121;49.810;6.418;2022-12-07T12:22:56;965.90;;;900.63;;
12114;SDS011;6121;49.810;6.418;2022-12-07T12:25:42;956.08;;;892.53;;
12114;SDS011;6121;49.810;6.418;2022-12-07T12:28:28;949.30;;;887.80;;
12114;SDS011;6121;49.810;6.418;2022-12-07T12:32:04;949.03;;;886.85;;
12114;SDS011;6121;49.810;6.418;2022-12-07T12:34:00;670.40;;;617.55;;
12114;SDS011;6121;49.810;6.418;2022-12-07T12:46:59;897.90;;;838.65;;
12114;SDS011;6121;49.810;6.418;2022-12-07T12:49:33;813.88;;;756.55;;
12114;SDS011;6121;49.810;6.418;2022-12-07T12:52:01;897.65;;;837.83;;
12114;SDS011;6121;49.810;6.418;2022-12-07T12:55:11;921.63;;;860.20;;
12114;SDS011;6121;49.810;6.418;2022-12-07T12:57:39;907.20;;;847.22;;
12114;SDS011;6121;49.810;6.418;2022-12-07T13:00:21;908.90;;;849.27;;
12114;SDS011;6121;49.810;6.418;2022-12-07T13:12:59;915.73;;;854.60;;
12114;SDS011;6121;49.810;6.418;2022-12-07T13:15:43;924.58;;;862.95;;
12114;SDS011;6121;49.810;6.418;2022-12-07T13:20:53;910.67;;;850.50;;
12114;SDS011;6121;49.810;6.418;2022-12-07T13:31:44;923.83;;;863.55;;
12114;SDS011;6121;49.810;6.418;2022-12-07T13:34:31;933.78;;;870.90;;
12114;SDS011;6121;49.810;6.418;2022-12-07T13:37:15;920.63;;;859.05;;
12114;SDS011;6121;49.810;6.418;2022-12-07T13:39:49;928.70;;;866.38;;
12114;SDS011;6121;49.810;6.418;2022-12-07T13:42:19;922.13;;;859.88;;
12114;SDS011;6121;49.810;6.418;2022-12-07T13:44:51;929.30;;;866.03;;
12114;SDS011;6121;49.810;6.418;2022-12-07T13:47:39;925.83;;;863.83;;
12114;SDS011;6121;49.810;6.418;2022-12-07T13:50:23;919.72;;;858.17;;
12114;SDS011;6121;49.810;6.418;2022-12-07T13:52:58;928.97;;;866.30;;
12114;SDS011;6121;49.810;6.418;2022-12-07T13:55:25;947.15;;;882.00;;
12114;SDS011;6121;49.810;6.418;2022-12-07T13:57:52;918.23;;;856.93;;
12114;SDS011;6121;49.810;6.418;2022-12-07T14:00:25;923.67;;;861.90;;
12114;SDS011;6121;49.810;6.418;2022-12-07T14:08:00;930.20;;;869.75;;
12114;SDS011;6121;49.810;6.418;2022-12-07T14:12:58;918.00;;;858.13;;
12114;SDS011;6121;49.810;6.418;2022-12-07T14:15:32;937.58;;;874.53;;
12114;SDS011;6121;49.810;6.418;2022-12-07T14:17:59;919.15;;;859.17;;
12114;SDS011;6121;49.810;6.418;2022-12-07T14:22:58;916.42;;;856.55;;
12114;SDS011;6121;49.810;6.418;2022-12-07T14:25:27;937.83;;;875.05;;
12114;SDS011;6121;49.810;6.418;2022-12-07T14:30:24;942.55;;;879.33;;
12114;SDS011;6121;49.810;6.418;2022-12-07T14:32:57;918.17;;;856.72;;
12114;SDS011;6121;49.810;6.418;2022-12-07T14:35:25;951.17;;;884.90;;
12114;SDS011;6121;49.810;6.418;2022-12-07T14:37:51;939.75;;;877.40;;
12114;SDS011;6121;49.810;6.418;2022-12-07T14:40:23;926.53;;;864.83;;
12114;SDS011;6121;49.810;6.418;2022-12-07T14:42:56;930.33;;;868.78;;
12114;SDS011;6121;49.810;6.418;2022-12-07T14:45:26;942.90;;;877.70;;
12114;SDS011;6121;49.810;6.418;2022-12-07T14:47:52;926.63;;;864.73;;
12114;SDS011;6121;49.810;6.418;2022-12-07T14:50:18;928.97;;;867.75;;
12114;SDS011;6121;49.810;6.418;2022-12-07T14:52:46;935.05;;;872.80;;
12114;SDS011;6121;49.810;6.418;2022-12-07T14:55:23;948.88;;;883.13;;
12114;SDS011;6121;49.810;6.418;2022-12-07T14:57:49;928.70;;;866.40;;
12114;SDS011;6121;49.810;6.418;2022-12-07T15:00:15;926.20;;;863.53;;
12114;SDS011;6121;49.810;6.418;2022-12-07T15:02:42;930.88;;;869.25;;
12114;SDS011;6121;49.810;6.418;2022-12-07T15:05:09;938.45;;;874.15;;
12114;SDS011;6121;49.810;6.418;2022-12-07T15:07:35;931.23;;;869.33;;
12114;SDS011;6121;49.810;6.418;2022-12-07T15:10:01;933.43;;;871.23;;
12114;SDS011;6121;49.810;6.418;2022-12-07T15:12:26;929.85;;;868.88;;
12114;SDS011;6121;49.810;6.418;2022-12-07T15:14:52;941.80;;;879.25;;
12114;SDS011;6121;49.810;6.418;2022-12-07T15:17:17;926.87;;;866.00;;
12114;SDS011;6121;49.810;6.418;2022-12-07T15:19:43;932.73;;;871.83;;
12114;SDS011;6121;49.810;6.418;2022-12-07T15:22:09;934.42;;;873.33;;
12114;SDS011;6121;49.810;6.418;2022-12-07T15:24:35;933.15;;;870.97;;
12114;SDS011;6121;49.810;6.418;2022-12-07T15:27:02;696.15;;;642.13;;
12114;SDS011;6121;49.810;6.418;2022-12-07T15:29:28;766.30;;;710.07;;
12114;SDS011;6121;49.810;6.418;2022-12-07T15:31:54;782.42;;;725.28;;
12114;SDS011;6121;49.810;6.418;2022-12-07T15:34:20;772.13;;;715.70;;
12114;SDS011;6121;49.810;6.418;2022-12-07T15:36:46;789.30;;;730.88;;
12114;SDS011;6121;49.810;6.418;2022-12-07T15:39:11;793.43;;;734.97;;
12114;SDS011;6121;49.810;6.418;2022-12-07T15:41:37;775.35;;;718.45;;
12114;SDS011;6121;49.810;6.418;2022-12-07T15:44:03;769.27;;;713.73;;
12114;SDS011;6121;49.810;6.418;2022-12-07T15:46:48;815.67;;;758.13;;
12114;SDS011;6121;49.810;6.418;2022-12-07T15:49:15;815.00;;;758.22;;
12114;SDS011;6121;49.810;6.418;2022-12-07T15:51:43;811.60;;;754.55;;
12114;SDS011;6121;49.810;6.418;2022-12-07T15:54:11;802.85;;;746.47;;
12114;SDS011;6121;49.810;6.418;2022-12-07T15:56:41;754.05;;;699.03;;
12114;SDS011;6121;49.810;6.418;2022-12-07T15:59:06;758.42;;;702.28;;
12114;SDS011;6121;49.810;6.418;2022-12-07T16:01:32;791.73;;;735.53;;
12114;SDS011;6121;49.810;6.418;2022-12-07T16:03:57;758.20;;;703.23;;
12114;SDS011;6121;49.810;6.418;2022-12-07T16:06:24;765.30;;;708.50;;
12114;SDS011;6121;49.810;6.418;2022-12-07T16:08:50;816.83;;;759.28;;
12114;SDS011;6121;49.810;6.418;2022-12-07T16:11:16;757.43;;;701.10;;
12114;SDS011;6121;49.810;6.418;2022-12-07T16:13:41;766.47;;;710.83;;
12114;SDS011;6121;49.810;6.418;2022-12-07T16:16:08;770.65;;;713.65;;
12114;SDS011;6121;49.810;6.418;2022-12-07T16:18:36;767.05;;;711.53;;
12114;SDS011;6121;49.810;6.418;2022-12-07T16:21:02;772.60;;;716.58;;
12114;SDS011;6121;49.810;6.418;2022-12-07T16:23:28;756.17;;;700.95;;
12114;SDS011;6121;49.810;6.418;2022-12-07T16:25:53;774.25;;;716.35;;
12114;SDS011;6121;49.810;6.418;2022-12-07T16:28:19;781.33;;;725.30;;
12114;SDS011;6121;49.810;6.418;2022-12-07T16:30:45;771.27;;;715.53;;
12114;SDS011;6121;49.810;6.418;2022-12-07T16:33:10;780.27;;;723.97;;
12114;SDS011;6121;49.810;6.418;2022-12-07T16:35:39;783.95;;;725.58;;
12114;SDS011;6121;49.810;6.418;2022-12-07T16:38:06;780.40;;;722.20;;